createdAt,value
2022-07-26T00:00:46.990Z,11.30
2022-07-26T00:03:14.435Z,11.30
2022-07-26T00:05:41.608Z,11.30
2022-07-26T00:08:12.569Z,11.20
2022-07-26T00:10:46.298Z,11.20
2022-07-26T00:13:13.666Z,11.20
2022-07-26T00:15:40.761Z,11.20
2022-07-26T00:18:08.115Z,11.20
2022-07-26T00:20:39.228Z,11.10
2022-07-26T00:23:06.546Z,11.00
2022-07-26T00:25:33.948Z,10.90
2022-07-26T00:28:01.086Z,10.80
2022-07-26T00:30:29.363Z,10.70
2022-07-26T00:32:56.596Z,10.60
2022-07-26T00:35:23.738Z,10.50
2022-07-26T00:37:51.276Z,10.50
2022-07-26T00:40:18.683Z,10.40
2022-07-26T00:42:46.203Z,10.40
2022-07-26T00:45:14.342Z,10.30
2022-07-26T00:47:41.484Z,10.30
2022-07-26T00:50:12.224Z,10.30
2022-07-26T00:52:41.530Z,10.20
2022-07-26T00:55:09.423Z,10.20
2022-07-26T00:57:36.771Z,10.20
2022-07-26T01:00:11.466Z,10.10
2022-07-26T01:02:39.019Z,10.00
2022-07-26T01:05:07.399Z,10.00
2022-07-26T01:07:35.254Z,10.00
2022-07-26T01:10:04.761Z,10.00
2022-07-26T01:12:31.973Z,9.90
2022-07-26T01:14:59.028Z,9.90
2022-07-26T01:17:26.213Z,9.80
2022-07-26T01:19:53.253Z,9.80
2022-07-26T01:22:20.372Z,9.80
2022-07-26T01:24:47.479Z,9.80
2022-07-26T01:27:14.593Z,9.80
2022-07-26T01:29:41.755Z,9.80
2022-07-26T01:32:09.534Z,9.80
2022-07-26T01:34:36.610Z,9.80
2022-07-26T01:37:04.234Z,9.80
2022-07-26T01:39:31.262Z,9.80
2022-07-26T01:41:58.705Z,9.80
2022-07-26T01:44:25.926Z,9.90
2022-07-26T01:46:53.017Z,10.00
2022-07-26T01:49:20.302Z,10.00
2022-07-26T01:51:47.502Z,10.10
2022-07-26T01:54:14.588Z,10.10
2022-07-26T01:56:43.440Z,10.10
2022-07-26T01:59:10.533Z,10.10
2022-07-26T02:01:38.772Z,10.10
2022-07-26T02:04:09.184Z,10.10
2022-07-26T02:06:37.351Z,10.10
2022-07-26T02:09:07.485Z,10.10
2022-07-26T02:11:34.827Z,10.10
2022-07-26T02:14:03.541Z,10.00
2022-07-26T02:16:30.724Z,10.00
2022-07-26T02:18:57.898Z,10.00
2022-07-26T02:21:24.988Z,9.90
2022-07-26T02:23:52.079Z,9.90
2022-07-26T02:26:19.144Z,9.90
2022-07-26T02:28:46.242Z,9.90
2022-07-26T02:31:15.475Z,9.90
2022-07-26T02:33:43.110Z,9.90
2022-07-26T02:36:10.214Z,9.90
2022-07-26T02:38:37.311Z,9.90
2022-07-26T02:41:06.386Z,10.00
2022-07-26T02:43:33.619Z,10.00
2022-07-26T02:46:01.575Z,9.90
2022-07-26T02:48:32.891Z,9.80
2022-07-26T02:51:00.418Z,9.80
2022-07-26T02:53:28.001Z,9.80
2022-07-26T02:55:55.141Z,9.80
2022-07-26T02:58:22.794Z,9.80
2022-07-26T03:00:50.184Z,9.80
2022-07-26T03:03:17.312Z,9.80
2022-07-26T03:05:44.568Z,9.80
2022-07-26T03:08:11.874Z,9.70
2022-07-26T03:10:40.245Z,9.70
2022-07-26T03:13:07.416Z,9.80
2022-07-26T03:15:34.677Z,9.80
2022-07-26T03:18:02.159Z,9.90
2022-07-26T03:20:29.454Z,9.90
2022-07-26T03:22:56.491Z,9.90
2022-07-26T03:25:23.611Z,9.90
2022-07-26T03:27:50.678Z,9.90
2022-07-26T03:30:24.760Z,10.00
2022-07-26T03:32:52.905Z,10.10
2022-07-26T03:35:20.085Z,10.10
2022-07-26T03:37:47.252Z,10.10
2022-07-26T03:40:17.982Z,10.20
2022-07-26T03:42:46.430Z,10.20
2022-07-26T03:45:14.573Z,10.20
2022-07-26T03:47:42.260Z,10.30
2022-07-26T03:50:09.846Z,10.30
2022-07-26T03:52:37.031Z,10.30
2022-07-26T03:55:27.371Z,10.30
2022-07-26T03:57:54.561Z,10.40
2022-07-26T04:00:21.602Z,10.40
2022-07-26T04:02:48.807Z,10.40
2022-07-26T04:05:16.071Z,10.40
2022-07-26T04:07:53.288Z,10.50
2022-07-26T04:10:22.195Z,10.50
2022-07-26T04:12:50.306Z,10.50
2022-07-26T04:15:19.248Z,10.60
2022-07-26T04:17:48.409Z,10.60
2022-07-26T04:20:16.014Z,10.50
2022-07-26T04:22:43.279Z,10.60
2022-07-26T04:25:10.691Z,10.60
2022-07-26T04:27:38.717Z,10.60
2022-07-26T04:30:12.421Z,10.60
2022-07-26T04:32:41.403Z,10.60
2022-07-26T04:35:08.984Z,10.60
2022-07-26T04:37:43.754Z,10.50
2022-07-26T04:40:12.917Z,10.50
2022-07-26T04:42:40.430Z,10.50
2022-07-26T04:45:08.880Z,10.60
2022-07-26T04:47:36.616Z,10.60
2022-07-26T04:50:04.795Z,10.60
2022-07-26T04:52:33.843Z,10.60
2022-07-26T04:55:01.056Z,10.60
2022-07-26T04:57:28.197Z,10.60
2022-07-26T05:00:10.115Z,10.50
2022-07-26T05:02:42.821Z,10.50
2022-07-26T05:05:10.073Z,10.50
2022-07-26T05:07:48.812Z,10.50
2022-07-26T05:10:18.661Z,10.60
2022-07-26T05:12:46.760Z,11.50
2022-07-26T05:15:14.668Z,12.90
2022-07-26T05:17:43.334Z,13.80
2022-07-26T05:20:12.773Z,14.20
2022-07-26T05:22:40.001Z,14.60
2022-07-26T05:25:09.629Z,15.10
2022-07-26T05:27:36.980Z,15.70
2022-07-26T05:30:04.463Z,15.70
2022-07-26T05:32:31.530Z,15.60
2022-07-26T05:34:58.560Z,15.40
2022-07-26T05:37:25.840Z,15.90
2022-07-26T05:39:52.888Z,16.10
2022-07-26T05:42:20.023Z,15.30
2022-07-26T05:44:47.204Z,14.70
2022-07-26T05:47:14.433Z,14.30
2022-07-26T05:49:41.493Z,14.20
2022-07-26T05:52:09.123Z,14.20
2022-07-26T05:54:36.613Z,13.90
2022-07-26T05:57:04.355Z,13.60
2022-07-26T05:59:31.658Z,13.50
2022-07-26T06:01:58.995Z,13.40
2022-07-26T06:04:27.029Z,13.60
2022-07-26T06:06:58.018Z,13.80
2022-07-26T06:09:25.264Z,14.00
2022-07-26T06:11:52.881Z,14.00
2022-07-26T06:14:20.542Z,14.20
2022-07-26T06:16:48.196Z,14.30
2022-07-26T06:19:15.795Z,14.40
2022-07-26T06:21:43.046Z,14.40
2022-07-26T06:24:10.734Z,14.60
2022-07-26T06:26:38.816Z,14.40
2022-07-26T06:29:05.935Z,14.20
2022-07-26T06:31:33.480Z,13.90
2022-07-26T06:34:19.577Z,13.70
2022-07-26T06:37:08.490Z,13.40
2022-07-26T06:39:54.699Z,13.20
2022-07-26T06:42:21.832Z,13.10
2022-07-26T06:44:48.897Z,12.90
2022-07-26T06:47:35.511Z,12.70
2022-07-26T06:50:25.649Z,12.70
2022-07-26T07:52:12.350Z,14.60
2022-07-26T07:54:39.802Z,14.50
2022-07-26T08:00:51.749Z,14.40
2022-07-26T08:03:20.567Z,14.60
2022-07-26T08:05:49.900Z,14.80
2022-07-26T08:08:22.482Z,15.20
2022-07-26T08:10:53.412Z,15.20
2022-07-26T08:13:24.277Z,14.90
2022-07-26T08:15:55.887Z,14.60
2022-07-26T08:18:24.341Z,14.30
2022-07-26T08:20:53.242Z,14.50
2022-07-26T08:23:21.532Z,14.70
2022-07-26T08:25:58.028Z,15.00
2022-07-26T08:28:46.961Z,15.20
2022-07-26T08:31:16.198Z,15.20
2022-07-26T08:33:46.557Z,15.40
2022-07-26T08:36:16.223Z,15.70
2022-07-26T08:38:44.493Z,15.60
2022-07-26T08:41:11.679Z,15.40
2022-07-26T08:43:52.296Z,15.40
2022-07-26T08:46:27.018Z,15.20
2022-07-26T08:48:56.494Z,15.10
2022-07-26T08:51:25.068Z,15.00
2022-07-26T08:53:59.325Z,14.90
2022-07-26T08:56:29.228Z,14.80
2022-07-26T08:58:56.566Z,14.70
2022-07-26T09:01:23.952Z,14.40
2022-07-26T09:03:51.165Z,14.30
2022-07-26T09:06:20.393Z,14.30
2022-07-26T09:08:52.315Z,14.20
2022-07-26T09:11:27.657Z,14.20
2022-07-26T09:13:59.150Z,14.20
2022-07-26T09:16:27.045Z,14.30
2022-07-26T09:18:54.863Z,14.50
2022-07-26T09:21:28.277Z,14.90
2022-07-26T09:23:56.626Z,15.30
2022-07-26T09:26:26.875Z,15.70
2022-07-26T09:29:07.871Z,16.00
2022-07-26T09:31:37.050Z,16.20
2022-07-26T09:34:04.881Z,16.10
2022-07-26T09:36:32.258Z,16.00
2022-07-26T09:39:04.565Z,15.90
2022-07-26T09:41:37.477Z,15.90
2022-07-26T09:44:24.462Z,15.80
2022-07-26T09:46:57.226Z,15.90
2022-07-26T09:49:30.919Z,16.10
2022-07-26T09:52:18.586Z,16.10
2022-07-26T09:59:04.960Z,16.30
2022-07-26T10:01:32.341Z,16.20
2022-07-26T10:04:03.085Z,16.20
2022-07-26T10:06:30.764Z,16.00
2022-07-26T10:09:02.496Z,15.70
2022-07-26T10:11:36.878Z,15.60
2022-07-26T10:14:35.503Z,15.60
2022-07-26T10:17:35.157Z,15.70
2022-07-26T10:24:34.768Z,16.00
2022-07-26T10:27:01.934Z,15.80
2022-07-26T10:29:33.347Z,15.80
2022-07-26T10:32:04.034Z,15.80
2022-07-26T10:34:37.377Z,15.90
2022-07-26T10:37:07.302Z,16.20
2022-07-26T10:39:35.297Z,16.70
2022-07-26T10:42:10.678Z,16.60
2022-07-26T10:44:41.472Z,16.40
2022-07-26T10:47:08.618Z,16.40
2022-07-26T10:50:01.494Z,16.60
2022-07-26T10:52:32.558Z,16.70
2022-07-26T10:54:59.693Z,16.60
2022-07-26T10:57:28.313Z,16.50
2022-07-26T11:00:06.645Z,16.30
2022-07-26T11:02:36.324Z,16.20
2022-07-26T11:05:15.011Z,16.20
2022-07-26T11:08:09.342Z,16.30
2022-07-26T11:10:39.464Z,16.80
2022-07-26T11:13:10.184Z,17.20
2022-07-26T11:15:40.726Z,17.60
2022-07-26T11:18:19.639Z,17.80
2022-07-26T11:20:48.497Z,17.70
2022-07-26T11:23:29.909Z,17.50
2022-07-26T11:26:19.274Z,17.30
2022-07-26T11:28:49.473Z,17.20
2022-07-26T11:31:19.286Z,17.00
2022-07-26T11:33:50.998Z,16.90
2022-07-26T11:36:31.094Z,17.10
2022-07-26T11:38:58.498Z,17.10
2022-07-26T11:41:35.005Z,17.10
2022-07-26T11:44:03.287Z,17.30
2022-07-26T11:46:47.343Z,17.70
2022-07-26T11:49:18.430Z,17.90
2022-07-26T11:52:00.792Z,17.60
2022-07-26T11:54:33.143Z,17.00
2022-07-26T11:57:03.144Z,16.50
2022-07-26T11:59:40.041Z,16.20
2022-07-26T12:02:09.248Z,16.10
2022-07-26T12:04:41.523Z,16.20
2022-07-26T12:07:22.827Z,16.30
2022-07-26T12:09:56.415Z,16.60
2022-07-26T12:12:29.414Z,16.70
2022-07-26T12:15:01.728Z,16.70
2022-07-26T12:17:35.360Z,16.80
2022-07-26T12:20:13.944Z,17.00
2022-07-26T12:22:42.003Z,17.30
2022-07-26T12:25:09.605Z,17.80
2022-07-26T12:27:46.354Z,18.30
2022-07-26T12:30:15.209Z,18.90
2022-07-26T12:32:45.033Z,18.70
2022-07-26T12:35:17.374Z,18.40
2022-07-26T12:37:47.434Z,18.20
2022-07-26T12:40:18.930Z,18.10
2022-07-26T12:42:55.869Z,18.00
2022-07-26T12:45:32.066Z,17.90
2022-07-26T12:48:01.726Z,18.10
2022-07-26T12:50:31.797Z,18.60
2022-07-26T12:53:07.764Z,18.80
2022-07-26T12:55:35.669Z,19.20
2022-07-26T12:58:03.019Z,19.80
2022-07-26T13:00:30.453Z,19.90
2022-07-26T13:02:58.090Z,20.00
2022-07-26T13:05:25.683Z,19.70
2022-07-26T13:07:52.981Z,19.80
2022-07-26T13:10:32.981Z,19.40
2022-07-26T13:13:01.831Z,18.90
2022-07-26T13:15:36.087Z,18.50
2022-07-26T13:18:06.445Z,18.10
2022-07-26T13:20:33.551Z,17.30
2022-07-26T13:23:01.577Z,16.50
2022-07-26T13:25:29.016Z,16.10
2022-07-26T13:28:00.676Z,15.90
2022-07-26T13:30:27.808Z,15.70
2022-07-26T13:32:54.990Z,15.60
2022-07-26T13:35:22.196Z,15.70
2022-07-26T13:37:49.491Z,15.80
2022-07-26T13:40:16.613Z,15.80
2022-07-26T13:42:44.973Z,16.00
2022-07-26T13:45:12.332Z,16.20
2022-07-26T13:47:42.364Z,16.40
2022-07-26T13:50:10.239Z,16.70
2022-07-26T13:52:38.564Z,16.80
2022-07-26T13:55:06.823Z,17.20
2022-07-26T13:57:39.776Z,17.40
2022-07-26T14:00:22.494Z,17.50
2022-07-26T14:02:49.786Z,17.40
2022-07-26T14:05:17.010Z,17.60
2022-07-26T14:07:44.349Z,18.00
2022-07-26T14:10:11.577Z,18.50
2022-07-26T14:12:38.946Z,18.80
2022-07-26T14:15:13.021Z,19.20
2022-07-26T14:17:45.683Z,19.80
2022-07-26T14:20:13.515Z,20.30
2022-07-26T14:22:40.650Z,20.70
2022-07-26T14:25:08.075Z,20.60
2022-07-26T14:27:35.235Z,20.40
2022-07-26T14:33:09.635Z,19.90
2022-07-26T14:35:37.196Z,19.70
2022-07-26T14:38:04.342Z,19.30
2022-07-26T14:40:31.534Z,19.00
2022-07-26T14:43:00.189Z,18.70
2022-07-26T14:45:27.712Z,18.60
2022-07-26T14:47:55.935Z,18.80
2022-07-26T14:50:25.836Z,18.80
2022-07-26T14:52:53.926Z,19.00
2022-07-26T14:55:25.264Z,19.80
2022-07-26T14:57:52.857Z,19.10
2022-07-26T15:00:19.991Z,18.70
2022-07-26T15:02:49.572Z,18.20
2022-07-26T15:05:17.851Z,18.20
2022-07-26T15:07:45.359Z,18.40
2022-07-26T15:10:14.473Z,18.30
2022-07-26T15:12:42.539Z,18.30
2022-07-26T15:15:11.127Z,18.20
2022-07-26T15:17:38.689Z,18.30
2022-07-26T15:20:06.708Z,18.30
2022-07-26T15:22:34.847Z,18.10
2022-07-26T15:25:01.985Z,18.10
2022-07-26T15:27:29.150Z,18.10
2022-07-26T15:30:01.027Z,18.00
2022-07-26T15:32:31.335Z,17.80
2022-07-26T15:34:58.439Z,17.60
2022-07-26T15:37:25.647Z,17.60
2022-07-26T15:39:52.931Z,17.70
2022-07-26T15:42:21.538Z,17.80
2022-07-26T15:44:51.716Z,18.00
2022-07-26T15:47:43.518Z,18.10
2022-07-26T15:50:08.327Z,18.30
2022-07-26T15:52:42.216Z,18.30
2022-07-26T15:55:10.552Z,18.20
2022-07-26T15:57:37.830Z,18.20
2022-07-26T16:00:11.228Z,18.10
2022-07-26T16:02:40.056Z,18.00
2022-07-26T16:05:08.013Z,18.00
2022-07-26T16:07:35.424Z,18.00
2022-07-26T16:10:03.110Z,18.00
2022-07-26T16:12:30.588Z,18.00
2022-07-26T16:14:58.554Z,18.10
2022-07-26T16:17:25.974Z,18.10
2022-07-26T16:19:53.760Z,18.10
2022-07-26T16:22:23.019Z,18.10
2022-07-26T16:24:50.497Z,18.00
2022-07-26T16:27:17.851Z,18.00
2022-07-26T16:29:47.842Z,17.80
2022-07-26T16:32:21.348Z,17.70
2022-07-26T16:34:49.071Z,17.70
2022-07-26T16:37:16.308Z,17.60
2022-07-26T16:39:43.476Z,17.60
2022-07-26T16:42:10.577Z,17.50
2022-07-26T16:44:38.140Z,17.40
2022-07-26T16:47:05.513Z,17.40
2022-07-26T16:49:32.750Z,17.50
2022-07-26T16:51:59.900Z,17.60
2022-07-26T16:54:27.256Z,17.60
2022-07-26T16:56:54.336Z,17.50
2022-07-26T16:59:21.432Z,17.40
2022-07-26T17:01:48.607Z,17.40
2022-07-26T17:04:16.726Z,17.40
2022-07-26T17:07:01.709Z,17.40
2022-07-26T17:09:32.231Z,17.30
2022-07-26T17:12:04.293Z,17.30
2022-07-26T17:14:35.835Z,17.20
2022-07-26T17:17:03.039Z,17.30
2022-07-26T17:19:30.224Z,17.30
2022-07-26T17:21:57.277Z,17.20
2022-07-26T17:24:24.417Z,17.20
2022-07-26T17:26:51.674Z,17.10
2022-07-26T17:29:18.887Z,17.10
2022-07-26T17:31:45.959Z,17.10
2022-07-26T17:34:13.219Z,17.10
2022-07-26T17:36:40.334Z,17.10
2022-07-26T17:39:15.082Z,17.10
2022-07-26T17:41:47.467Z,17.00
2022-07-26T17:44:15.021Z,16.90
2022-07-26T17:46:42.459Z,16.90
2022-07-26T17:49:10.037Z,16.80
2022-07-26T17:51:41.606Z,16.80
2022-07-26T17:54:10.678Z,16.80
2022-07-26T17:56:37.943Z,16.90
2022-07-26T17:59:05.284Z,16.90
2022-07-26T18:01:32.713Z,16.90
2022-07-26T18:04:00.062Z,16.90
2022-07-26T18:06:27.097Z,16.80
2022-07-26T18:08:56.467Z,16.70
2022-07-26T18:11:23.523Z,16.50
2022-07-26T18:13:50.881Z,16.50
2022-07-26T18:16:18.959Z,16.50
2022-07-26T18:18:46.365Z,16.50
2022-07-26T18:21:13.530Z,16.50
2022-07-26T18:24:00.366Z,16.40
2022-07-26T18:26:28.066Z,16.40
2022-07-26T18:28:55.260Z,16.30
2022-07-26T18:31:22.503Z,16.20
2022-07-26T18:33:49.723Z,16.20
2022-07-26T18:36:17.549Z,16.20
2022-07-26T18:38:44.734Z,16.20
2022-07-26T18:41:13.726Z,16.10
2022-07-26T18:43:41.608Z,16.10
2022-07-26T18:46:08.832Z,16.20
2022-07-26T18:48:36.464Z,16.20
2022-07-26T18:51:08.887Z,16.10
2022-07-26T18:53:36.014Z,16.00
2022-07-26T18:56:03.205Z,16.00
2022-07-26T18:58:30.610Z,16.00
2022-07-26T19:00:58.801Z,15.90
2022-07-26T19:03:26.157Z,15.90
2022-07-26T19:05:53.326Z,15.90
2022-07-26T19:08:20.438Z,15.80
2022-07-26T19:10:47.580Z,15.80
2022-07-26T19:13:14.694Z,15.70
2022-07-26T19:15:41.979Z,15.70
2022-07-26T19:18:11.176Z,15.60
2022-07-26T19:20:38.603Z,15.50
2022-07-26T19:23:05.752Z,15.40
2022-07-26T19:25:32.963Z,15.30
2022-07-26T19:28:01.878Z,15.20
2022-07-26T19:30:29.179Z,15.00
2022-07-26T19:32:56.206Z,14.90
2022-07-26T19:35:23.786Z,14.80
2022-07-26T19:37:50.913Z,14.80
2022-07-26T19:40:18.069Z,14.70
2022-07-26T19:42:45.497Z,14.70
2022-07-26T19:45:12.951Z,14.60
2022-07-26T19:47:40.239Z,14.60
2022-07-26T19:50:09.184Z,14.60
2022-07-26T19:52:36.676Z,14.60
2022-07-26T19:55:04.367Z,14.70
2022-07-26T19:57:32.485Z,14.60
2022-07-26T20:00:01.918Z,14.50
2022-07-26T20:02:41.214Z,14.40
2022-07-26T20:05:12.325Z,14.30
2022-07-26T20:07:40.097Z,14.30
2022-07-26T20:10:08.461Z,14.10
2022-07-26T20:12:37.410Z,14.00
2022-07-26T20:15:05.622Z,14.00
2022-07-26T20:17:35.620Z,13.90
2022-07-26T20:20:05.990Z,13.90
2022-07-26T20:22:33.079Z,13.80
2022-07-26T20:25:00.151Z,13.80
2022-07-26T20:27:27.356Z,13.70
2022-07-26T20:30:00.440Z,13.70
2022-07-26T20:32:28.307Z,13.60
2022-07-26T20:34:55.442Z,13.60
2022-07-26T20:37:22.635Z,13.60
2022-07-26T20:39:49.809Z,13.50
2022-07-26T20:42:21.921Z,13.50
2022-07-26T20:44:49.360Z,13.50
2022-07-26T20:47:16.436Z,13.40
2022-07-26T20:49:43.692Z,13.30
2022-07-26T20:52:11.090Z,13.30
2022-07-26T20:54:38.369Z,13.30
2022-07-26T20:57:05.702Z,13.20
2022-07-26T20:59:35.101Z,13.20
2022-07-26T21:02:02.508Z,13.10
2022-07-26T21:04:30.163Z,13.10
2022-07-26T21:06:57.269Z,13.10
2022-07-26T21:09:27.867Z,13.10
2022-07-26T21:11:55.050Z,13.10
2022-07-26T21:14:22.361Z,13.10
2022-07-26T21:16:50.656Z,13.10
2022-07-26T21:19:17.855Z,13.10
2022-07-26T21:21:44.958Z,13.10
2022-07-26T21:24:12.548Z,13.10
2022-07-26T21:26:39.730Z,13.20
2022-07-26T21:29:06.938Z,13.20
2022-07-26T21:31:34.089Z,13.30
2022-07-26T21:34:01.216Z,13.30
2022-07-26T21:36:28.464Z,13.30
2022-07-26T21:38:55.592Z,13.30
2022-07-26T21:41:22.985Z,13.40
2022-07-26T21:43:50.073Z,13.40
2022-07-26T21:46:17.299Z,13.40
2022-07-26T21:48:44.614Z,13.40
2022-07-26T21:51:11.875Z,13.40
2022-07-26T21:53:40.059Z,13.40
2022-07-26T21:56:08.395Z,13.40
2022-07-26T21:58:36.824Z,13.40
2022-07-26T22:01:11.239Z,13.30
2022-07-26T22:03:40.046Z,13.30
2022-07-26T22:06:08.132Z,13.30
2022-07-26T22:08:35.989Z,13.30
2022-07-26T22:11:03.628Z,13.20
2022-07-26T22:13:31.679Z,13.20
2022-07-26T22:15:58.733Z,13.20
2022-07-26T22:18:26.295Z,13.20
2022-07-26T22:20:53.562Z,13.20
2022-07-26T22:23:23.041Z,13.10
2022-07-26T22:25:50.229Z,13.10
2022-07-26T22:28:17.788Z,13.10
2022-07-26T22:30:46.216Z,13.10
2022-07-26T22:33:13.324Z,13.10
2022-07-26T22:35:40.475Z,13.10
2022-07-26T22:38:09.906Z,13.00
2022-07-26T22:40:38.573Z,13.00
2022-07-26T22:43:06.338Z,12.90
2022-07-26T22:45:33.948Z,12.90
2022-07-26T22:48:03.093Z,12.80
2022-07-26T22:50:30.741Z,12.80
2022-07-26T22:52:58.456Z,12.70
2022-07-26T22:55:25.635Z,12.70
2022-07-26T22:57:52.936Z,12.60
2022-07-26T23:00:20.623Z,12.60
2022-07-26T23:02:48.948Z,12.60
2022-07-26T23:05:16.432Z,12.50
2022-07-26T23:07:47.161Z,12.50
2022-07-26T23:10:15.647Z,12.60
2022-07-26T23:12:42.935Z,12.50
2022-07-26T23:15:11.210Z,12.50
2022-07-26T23:17:38.507Z,12.50
2022-07-26T23:20:07.340Z,12.50
2022-07-26T23:22:35.318Z,12.60
2022-07-26T23:25:02.508Z,12.50
2022-07-26T23:27:29.672Z,12.60
2022-07-26T23:29:56.918Z,12.60
2022-07-26T23:32:24.057Z,12.70
2022-07-26T23:34:51.435Z,12.70
2022-07-26T23:37:18.728Z,12.70
2022-07-26T23:39:45.877Z,12.70
2022-07-26T23:42:12.978Z,12.70
2022-07-26T23:44:40.114Z,12.70
2022-07-26T23:47:07.465Z,12.60
2022-07-26T23:49:34.677Z,12.50
2022-07-26T23:52:01.840Z,12.50
2022-07-26T23:54:28.968Z,12.40
2022-07-26T23:56:56.086Z,12.30
2022-07-26T23:59:23.747Z,12.30
